sensor_id;sensor_type;location;lat;lon;timestamp;temperature;humidity
37956;DHT22;23776;51.592;7.180;2022-09-01T00:00:48;18.90;38.20
37956;DHT22;23776;51.592;7.180;2022-09-01T00:03:19;19.00;42.50
37956;DHT22;23776;51.592;7.180;2022-09-01T00:05:49;19.00;43.00
37956;DHT22;23776;51.592;7.180;2022-09-01T00:08:20;18.90;41.80
37956;DHT22;23776;51.592;7.180;2022-09-01T00:10:46;19.00;41.40
37956;DHT22;23776;51.592;7.180;2022-09-01T00:13:12;19.00;44.00
37956;DHT22;23776;51.592;7.180;2022-09-01T00:15:38;19.00;42.60
37956;DHT22;23776;51.592;7.180;2022-09-01T00:18:04;19.00;44.20
37956;DHT22;23776;51.592;7.180;2022-09-01T00:20:30;19.00;43.50
37956;DHT22;23776;51.592;7.180;2022-09-01T00:22:56;18.90;44.30
37956;DHT22;23776;51.592;7.180;2022-09-01T00:25:22;18.90;43.60
37956;DHT22;23776;51.592;7.180;2022-09-01T00:27:50;18.90;45.70
37956;DHT22;23776;51.592;7.180;2022-09-01T00:30:16;18.90;44.30
37956;DHT22;23776;51.592;7.180;2022-09-01T00:32:42;18.80;43.70
37956;DHT22;23776;51.592;7.180;2022-09-01T00:35:12;18.80;44.30
37956;DHT22;23776;51.592;7.180;2022-09-01T00:37:38;18.70;42.80
37956;DHT22;23776;51.592;7.180;2022-09-01T00:40:05;18.60;42.90
37956;DHT22;23776;51.592;7.180;2022-09-01T00:42:31;18.60;46.90
37956;DHT22;23776;51.592;7.180;2022-09-01T00:44:57;18.60;47.80
37956;DHT22;23776;51.592;7.180;2022-09-01T00:47:22;18.50;45.40
37956;DHT22;23776;51.592;7.180;2022-09-01T00:49:49;18.40;46.00
37956;DHT22;23776;51.592;7.180;2022-09-01T00:52:18;18.30;47.60
37956;DHT22;23776;51.592;7.180;2022-09-01T00:54:48;18.40;49.00
37956;DHT22;23776;51.592;7.180;2022-09-01T00:57:15;18.30;47.80
37956;DHT22;23776;51.592;7.180;2022-09-01T01:00:02;18.30;47.30
37956;DHT22;23776;51.592;7.180;2022-09-01T01:02:28;18.20;49.20
37956;DHT22;23776;51.592;7.180;2022-09-01T01:04:54;18.20;49.30
37956;DHT22;23776;51.592;7.180;2022-09-01T01:07:23;18.10;50.30
37956;DHT22;23776;51.592;7.180;2022-09-01T01:09:52;18.10;50.60
37956;DHT22;23776;51.592;7.180;2022-09-01T01:12:18;18.00;52.70
37956;DHT22;23776;51.592;7.180;2022-09-01T01:14:49;17.90;51.80
37956;DHT22;23776;51.592;7.180;2022-09-01T01:17:17;17.90;51.90
37956;DHT22;23776;51.592;7.180;2022-09-01T01:19:45;17.90;53.00
37956;DHT22;23776;51.592;7.180;2022-09-01T01:25:48;17.80;54.70
37956;DHT22;23776;51.592;7.180;2022-09-01T01:28:24;17.60;55.20
37956;DHT22;23776;51.592;7.180;2022-09-01T01:30:57;17.50;56.10
37956;DHT22;23776;51.592;7.180;2022-09-01T01:33:32;17.50;60.90
37956;DHT22;23776;51.592;7.180;2022-09-01T01:35:59;17.40;63.00
37956;DHT22;23776;51.592;7.180;2022-09-01T01:38:26;17.40;67.40
37956;DHT22;23776;51.592;7.180;2022-09-01T01:40:53;17.40;68.00
37956;DHT22;23776;51.592;7.180;2022-09-01T01:43:19;17.30;71.30
37956;DHT22;23776;51.592;7.180;2022-09-01T01:45:51;17.30;75.80
37956;DHT22;23776;51.592;7.180;2022-09-01T01:48:19;17.30;77.20
37956;DHT22;23776;51.592;7.180;2022-09-01T01:50:50;17.20;78.20
37956;DHT22;23776;51.592;7.180;2022-09-01T01:53:17;17.00;79.30
37956;DHT22;23776;51.592;7.180;2022-09-01T01:55:44;17.00;88.80
37956;DHT22;23776;51.592;7.180;2022-09-01T01:58:10;17.00;90.60
37956;DHT22;23776;51.592;7.180;2022-09-01T02:00:41;16.90;98.20
37956;DHT22;23776;51.592;7.180;2022-09-01T02:03:10;16.90;95.40
37956;DHT22;23776;51.592;7.180;2022-09-01T02:05:38;16.90;99.90
37956;DHT22;23776;51.592;7.180;2022-09-01T02:08:08;16.90;98.00
37956;DHT22;23776;51.592;7.180;2022-09-01T02:10:38;16.80;99.90
37956;DHT22;23776;51.592;7.180;2022-09-01T02:13:06;16.80;99.10
37956;DHT22;23776;51.592;7.180;2022-09-01T02:15:36;16.80;99.40
37956;DHT22;23776;51.592;7.180;2022-09-01T02:18:11;16.70;99.90
37956;DHT22;23776;51.592;7.180;2022-09-01T02:20:39;16.70;99.90
37956;DHT22;23776;51.592;7.180;2022-09-01T02:23:05;16.80;99.90
37956;DHT22;23776;51.592;7.180;2022-09-01T02:25:36;16.70;99.90
37956;DHT22;23776;51.592;7.180;2022-09-01T02:28:02;16.70;99.90
37956;DHT22;23776;51.592;7.180;2022-09-01T02:30:29;16.70;99.90
37956;DHT22;23776;51.592;7.180;2022-09-01T02:32:57;16.60;99.90
37956;DHT22;23776;51.592;7.180;2022-09-01T02:35:24;16.60;99.90
37956;DHT22;23776;51.592;7.180;2022-09-01T02:37:53;16.60;99.90
37956;DHT22;23776;51.592;7.180;2022-09-01T02:40:26;16.60;99.90
37956;DHT22;23776;51.592;7.180;2022-09-01T02:42:56;15.00;99.90
37956;DHT22;23776;51.592;7.180;2022-09-01T02:45:23;16.40;99.90
37956;DHT22;23776;51.592;7.180;2022-09-01T02:47:49;16.50;99.90
37956;DHT22;23776;51.592;7.180;2022-09-01T02:50:16;16.40;99.90
37956;DHT22;23776;51.592;7.180;2022-09-01T02:52:44;16.40;99.90
37956;DHT22;23776;51.592;7.180;2022-09-01T02:55:13;16.50;99.90
37956;DHT22;23776;51.592;7.180;2022-09-01T02:57:39;16.40;99.90
37956;DHT22;23776;51.592;7.180;2022-09-01T03:00:07;16.30;99.90
37956;DHT22;23776;51.592;7.180;2022-09-01T03:02:47;16.30;99.90
37956;DHT22;23776;51.592;7.180;2022-09-01T03:05:12;16.30;99.90
37956;DHT22;23776;51.592;7.180;2022-09-01T03:07:40;16.30;99.90
37956;DHT22;23776;51.592;7.180;2022-09-01T03:10:07;16.20;99.90
37956;DHT22;23776;51.592;7.180;2022-09-01T03:12:34;16.20;99.90
37956;DHT22;23776;51.592;7.180;2022-09-01T03:15:00;16.10;99.90
37956;DHT22;23776;51.592;7.180;2022-09-01T03:17:25;16.20;99.90
37956;DHT22;23776;51.592;7.180;2022-09-01T03:19:51;16.10;99.90
37956;DHT22;23776;51.592;7.180;2022-09-01T03:22:19;16.00;99.90
37956;DHT22;23776;51.592;7.180;2022-09-01T03:24:45;16.00;99.90
37956;DHT22;23776;51.592;7.180;2022-09-01T03:27:10;16.00;99.90
37956;DHT22;23776;51.592;7.180;2022-09-01T03:29:36;16.00;99.90
37956;DHT22;23776;51.592;7.180;2022-09-01T03:32:03;16.10;99.90
37956;DHT22;23776;51.592;7.180;2022-09-01T03:34:29;16.00;99.90
37956;DHT22;23776;51.592;7.180;2022-09-01T03:36:58;15.90;99.90
37956;DHT22;23776;51.592;7.180;2022-09-01T03:39:26;15.90;99.90
37956;DHT22;23776;51.592;7.180;2022-09-01T03:41:51;15.90;99.90
37956;DHT22;23776;51.592;7.180;2022-09-01T03:44:17;15.90;99.90
37956;DHT22;23776;51.592;7.180;2022-09-01T03:46:43;15.90;99.90
37956;DHT22;23776;51.592;7.180;2022-09-01T03:49:10;15.80;99.90
37956;DHT22;23776;51.592;7.180;2022-09-01T03:51:40;15.80;99.90
37956;DHT22;23776;51.592;7.180;2022-09-01T03:54:07;15.90;99.90
37956;DHT22;23776;51.592;7.180;2022-09-01T03:56:33;15.90;99.90
37956;DHT22;23776;51.592;7.180;2022-09-01T03:59:00;15.80;99.90
37956;DHT22;23776;51.592;7.180;2022-09-01T04:01:29;15.80;99.90
37956;DHT22;23776;51.592;7.180;2022-09-01T04:03:59;15.80;99.90
37956;DHT22;23776;51.592;7.180;2022-09-01T04:06:25;15.60;99.90
37956;DHT22;23776;51.592;7.180;2022-09-01T04:08:51;15.60;99.90
37956;DHT22;23776;51.592;7.180;2022-09-01T04:11:27;15.60;99.90
37956;DHT22;23776;51.592;7.180;2022-09-01T04:13:53;15.60;99.90
37956;DHT22;23776;51.592;7.180;2022-09-01T04:16:25;15.60;99.90
37956;DHT22;23776;51.592;7.180;2022-09-01T04:19:10;15.50;99.90
37956;DHT22;23776;51.592;7.180;2022-09-01T04:21:52;15.50;99.90
37956;DHT22;23776;51.592;7.180;2022-09-01T04:24:22;15.50;99.90
37956;DHT22;23776;51.592;7.180;2022-09-01T04:26:50;15.40;99.90
37956;DHT22;23776;51.592;7.180;2022-09-01T04:29:18;15.40;99.90
37956;DHT22;23776;51.592;7.180;2022-09-01T04:31:55;15.40;99.90
37956;DHT22;23776;51.592;7.180;2022-09-01T04:34:22;15.30;99.90
37956;DHT22;23776;51.592;7.180;2022-09-01T04:36:49;15.30;99.90
37956;DHT22;23776;51.592;7.180;2022-09-01T04:39:22;15.30;99.90
37956;DHT22;23776;51.592;7.180;2022-09-01T04:41:48;15.30;99.90
37956;DHT22;23776;51.592;7.180;2022-09-01T04:44:15;15.30;99.90
37956;DHT22;23776;51.592;7.180;2022-09-01T04:46:43;15.30;99.90
37956;DHT22;23776;51.592;7.180;2022-09-01T04:49:13;15.30;99.90
37956;DHT22;23776;51.592;7.180;2022-09-01T04:51:46;15.20;99.90
37956;DHT22;23776;51.592;7.180;2022-09-01T04:54:13;15.30;99.90
37956;DHT22;23776;51.592;7.180;2022-09-01T04:56:44;15.30;99.90
37956;DHT22;23776;51.592;7.180;2022-09-01T04:59:11;15.40;99.90
37956;DHT22;23776;51.592;7.180;2022-09-01T05:01:38;15.40;99.90
37956;DHT22;23776;51.592;7.180;2022-09-01T05:06:47;15.30;99.90
37956;DHT22;23776;51.592;7.180;2022-09-01T05:09:14;15.30;99.90
37956;DHT22;23776;51.592;7.180;2022-09-01T05:11:41;15.40;99.90
37956;DHT22;23776;51.592;7.180;2022-09-01T05:14:11;15.30;99.90
37956;DHT22;23776;51.592;7.180;2022-09-01T05:16:38;15.40;99.90
37956;DHT22;23776;51.592;7.180;2022-09-01T05:19:08;15.30;99.90
37956;DHT22;23776;51.592;7.180;2022-09-01T05:21:44;15.40;99.90
37956;DHT22;23776;51.592;7.180;2022-09-01T05:24:12;15.40;99.90
37956;DHT22;23776;51.592;7.180;2022-09-01T05:26:40;15.40;99.90
37956;DHT22;23776;51.592;7.180;2022-09-01T05:29:07;15.50;99.90
37956;DHT22;23776;51.592;7.180;2022-09-01T05:31:39;15.50;99.90
37956;DHT22;23776;51.592;7.180;2022-09-01T05:34:05;15.60;99.90
37956;DHT22;23776;51.592;7.180;2022-09-01T05:36:34;15.60;99.90
37956;DHT22;23776;51.592;7.180;2022-09-01T05:39:02;15.70;99.90
37956;DHT22;23776;51.592;7.180;2022-09-01T05:41:29;15.70;99.90
37956;DHT22;23776;51.592;7.180;2022-09-01T05:43:54;15.70;99.90
37956;DHT22;23776;51.592;7.180;2022-09-01T05:46:24;15.80;99.90
37956;DHT22;23776;51.592;7.180;2022-09-01T05:48:52;15.80;99.90
37956;DHT22;23776;51.592;7.180;2022-09-01T05:51:20;15.80;99.90
37956;DHT22;23776;51.592;7.180;2022-09-01T05:53:48;15.90;99.90
37956;DHT22;23776;51.592;7.180;2022-09-01T05:56:17;15.90;99.90
37956;DHT22;23776;51.592;7.180;2022-09-01T05:58:45;16.00;99.90
37956;DHT22;23776;51.592;7.180;2022-09-01T06:01:31;16.00;99.90
37956;DHT22;23776;51.592;7.180;2022-09-01T06:03:59;16.00;99.90
37956;DHT22;23776;51.592;7.180;2022-09-01T06:06:30;15.90;99.90
37956;DHT22;23776;51.592;7.180;2022-09-01T06:09:00;16.00;99.90
37956;DHT22;23776;51.592;7.180;2022-09-01T06:11:26;16.10;99.90
37956;DHT22;23776;51.592;7.180;2022-09-01T06:13:56;16.20;99.90
37956;DHT22;23776;51.592;7.180;2022-09-01T06:16:23;16.20;99.90
37956;DHT22;23776;51.592;7.180;2022-09-01T06:18:52;16.20;99.90
37956;DHT22;23776;51.592;7.180;2022-09-01T06:21:19;16.20;99.90
37956;DHT22;23776;51.592;7.180;2022-09-01T06:23:49;16.40;99.90
37956;DHT22;23776;51.592;7.180;2022-09-01T06:26:23;16.40;99.90
37956;DHT22;23776;51.592;7.180;2022-09-01T06:28:52;16.50;99.90
37956;DHT22;23776;51.592;7.180;2022-09-01T06:31:23;16.60;99.90
37956;DHT22;23776;51.592;7.180;2022-09-01T06:33:53;16.60;99.90
37956;DHT22;23776;51.592;7.180;2022-09-01T06:36:22;16.70;99.90
37956;DHT22;23776;51.592;7.180;2022-09-01T06:38:49;16.70;99.90
37956;DHT22;23776;51.592;7.180;2022-09-01T06:41:16;16.80;99.90
37956;DHT22;23776;51.592;7.180;2022-09-01T06:43:48;16.80;99.90
37956;DHT22;23776;51.592;7.180;2022-09-01T06:46:18;16.90;99.90
37956;DHT22;23776;51.592;7.180;2022-09-01T06:48:45;17.00;99.90
37956;DHT22;23776;51.592;7.180;2022-09-01T06:51:21;17.10;99.90
37956;DHT22;23776;51.592;7.180;2022-09-01T06:53:48;17.10;99.90
37956;DHT22;23776;51.592;7.180;2022-09-01T06:56:22;17.30;99.90
37956;DHT22;23776;51.592;7.180;2022-09-01T06:58:51;17.30;99.90
37956;DHT22;23776;51.592;7.180;2022-09-01T07:01:19;17.40;99.90
37956;DHT22;23776;51.592;7.180;2022-09-01T07:03:47;17.50;99.90
37956;DHT22;23776;51.592;7.180;2022-09-01T07:06:14;17.60;99.90
37956;DHT22;23776;51.592;7.180;2022-09-01T07:08:40;17.60;99.90
37956;DHT22;23776;51.592;7.180;2022-09-01T07:11:16;17.70;99.90
37956;DHT22;23776;51.592;7.180;2022-09-01T07:13:53;17.80;99.90
37956;DHT22;23776;51.592;7.180;2022-09-01T07:16:21;17.90;99.90
37956;DHT22;23776;51.592;7.180;2022-09-01T07:18:49;18.00;99.90
37956;DHT22;23776;51.592;7.180;2022-09-01T07:21:16;18.00;99.90
37956;DHT22;23776;51.592;7.180;2022-09-01T07:23:42;18.10;99.90
37956;DHT22;23776;51.592;7.180;2022-09-01T07:26:10;18.20;99.90
37956;DHT22;23776;51.592;7.180;2022-09-01T07:28:39;18.20;99.90
37956;DHT22;23776;51.592;7.180;2022-09-01T07:31:05;18.30;99.90
37956;DHT22;23776;51.592;7.180;2022-09-01T07:33:33;18.40;99.90
37956;DHT22;23776;51.592;7.180;2022-09-01T07:35:59;18.50;99.90
37956;DHT22;23776;51.592;7.180;2022-09-01T07:38:25;18.60;99.90
37956;DHT22;23776;51.592;7.180;2022-09-01T07:40:53;18.70;99.90
37956;DHT22;23776;51.592;7.180;2022-09-01T07:43:20;18.80;99.90
37956;DHT22;23776;51.592;7.180;2022-09-01T07:45:54;18.80;99.90
37956;DHT22;23776;51.592;7.180;2022-09-01T07:48:21;18.90;99.90
37956;DHT22;23776;51.592;7.180;2022-09-01T07:50:50;18.90;99.90
37956;DHT22;23776;51.592;7.180;2022-09-01T07:53:21;18.60;99.90
37956;DHT22;23776;51.592;7.180;2022-09-01T07:55:48;19.10;99.90
37956;DHT22;23776;51.592;7.180;2022-09-01T07:58:16;19.20;99.90
37956;DHT22;23776;51.592;7.180;2022-09-01T08:00:42;19.20;99.90
37956;DHT22;23776;51.592;7.180;2022-09-01T08:03:10;19.30;99.90
37956;DHT22;23776;51.592;7.180;2022-09-01T08:05:36;19.40;99.90
37956;DHT22;23776;51.592;7.180;2022-09-01T08:08:02;19.50;99.90
37956;DHT22;23776;51.592;7.180;2022-09-01T08:10:28;19.60;99.90
37956;DHT22;23776;51.592;7.180;2022-09-01T08:12:54;19.70;99.90
37956;DHT22;23776;51.592;7.180;2022-09-01T08:15:19;19.80;99.90
37956;DHT22;23776;51.592;7.180;2022-09-01T08:17:45;19.80;99.90
37956;DHT22;23776;51.592;7.180;2022-09-01T08:20:11;19.90;99.90
37956;DHT22;23776;51.592;7.180;2022-09-01T08:22:37;19.90;99.90
37956;DHT22;23776;51.592;7.180;2022-09-01T08:25:08;20.00;99.90
37956;DHT22;23776;51.592;7.180;2022-09-01T08:27:35;20.20;99.90
37956;DHT22;23776;51.592;7.180;2022-09-01T08:30:04;20.20;99.90
37956;DHT22;23776;51.592;7.180;2022-09-01T08:32:31;20.20;99.90
37956;DHT22;23776;51.592;7.180;2022-09-01T08:34:57;20.30;99.90
37956;DHT22;23776;51.592;7.180;2022-09-01T08:37:23;20.40;99.90
37956;DHT22;23776;51.592;7.180;2022-09-01T08:39:50;20.40;99.90
37956;DHT22;23776;51.592;7.180;2022-09-01T08:42:25;20.50;99.90
37956;DHT22;23776;51.592;7.180;2022-09-01T08:50:37;20.80;99.90
37956;DHT22;23776;51.592;7.180;2022-09-01T08:53:28;20.80;99.90
37956;DHT22;23776;51.592;7.180;2022-09-01T08:55:55;20.90;99.90
37956;DHT22;23776;51.592;7.180;2022-09-01T08:58:22;21.00;99.90
37956;DHT22;23776;51.592;7.180;2022-09-01T09:00:54;21.00;99.90
37956;DHT22;23776;51.592;7.180;2022-09-01T09:06:25;21.20;99.90
37956;DHT22;23776;51.592;7.180;2022-09-01T09:08:56;21.30;99.90
37956;DHT22;23776;51.592;7.180;2022-09-01T09:11:42;21.40;99.90
37956;DHT22;23776;51.592;7.180;2022-09-01T09:16:49;21.60;99.90
37956;DHT22;23776;51.592;7.180;2022-09-01T09:19:28;21.60;99.90
37956;DHT22;23776;51.592;7.180;2022-09-01T09:21:56;21.70;99.90
37956;DHT22;23776;51.592;7.180;2022-09-01T09:29:52;21.80;99.90
37956;DHT22;23776;51.592;7.180;2022-09-01T09:32:19;22.00;99.90
37956;DHT22;23776;51.592;7.180;2022-09-01T09:34:46;22.00;99.90
37956;DHT22;23776;51.592;7.180;2022-09-01T09:45:33;22.30;99.90
37956;DHT22;23776;51.592;7.180;2022-09-01T09:48:08;22.40;99.90
37956;DHT22;23776;51.592;7.180;2022-09-01T09:50:37;22.50;99.90
37956;DHT22;23776;51.592;7.180;2022-09-01T09:53:29;22.70;99.90
37956;DHT22;23776;51.592;7.180;2022-09-01T09:56:00;22.80;99.90
37956;DHT22;23776;51.592;7.180;2022-09-01T09:58:38;22.90;99.90
37956;DHT22;23776;51.592;7.180;2022-09-01T10:01:26;23.00;99.90
37956;DHT22;23776;51.592;7.180;2022-09-01T10:03:58;23.20;99.90
37956;DHT22;23776;51.592;7.180;2022-09-01T10:06:35;23.40;99.90
37956;DHT22;23776;51.592;7.180;2022-09-01T10:09:05;23.50;99.90
37956;DHT22;23776;51.592;7.180;2022-09-01T10:11:42;23.60;99.20
37956;DHT22;23776;51.592;7.180;2022-09-01T10:14:22;23.70;98.00
37956;DHT22;23776;51.592;7.180;2022-09-01T10:16:55;23.80;98.70
37956;DHT22;23776;51.592;7.180;2022-09-01T10:19:22;23.90;96.50
37956;DHT22;23776;51.592;7.180;2022-09-01T10:21:49;24.10;95.70
37956;DHT22;23776;51.592;7.180;2022-09-01T10:26:50;24.20;92.10
37956;DHT22;23776;51.592;7.180;2022-09-01T10:29:36;24.30;92.20
37956;DHT22;23776;51.592;7.180;2022-09-01T10:32:09;24.50;90.60
37956;DHT22;23776;51.592;7.180;2022-09-01T10:34:37;24.50;80.90
37956;DHT22;23776;51.592;7.180;2022-09-01T10:37:05;24.50;81.30
37956;DHT22;23776;51.592;7.180;2022-09-01T10:39:31;24.70;84.50
37956;DHT22;23776;51.592;7.180;2022-09-01T10:41:58;24.80;80.90
37956;DHT22;23776;51.592;7.180;2022-09-01T10:44:32;25.00;77.80
37956;DHT22;23776;51.592;7.180;2022-09-01T10:47:09;25.10;76.80
37956;DHT22;23776;51.592;7.180;2022-09-01T10:58:24;25.30;69.80
37956;DHT22;23776;51.592;7.180;2022-09-01T11:00:55;25.40;66.80
37956;DHT22;23776;51.592;7.180;2022-09-01T11:08:23;25.50;66.50
37956;DHT22;23776;51.592;7.180;2022-09-01T11:11:55;25.60;67.70
37956;DHT22;23776;51.592;7.180;2022-09-01T11:14:00;25.70;67.20
37956;DHT22;23776;51.592;7.180;2022-09-01T11:19:27;26.00;66.40
37956;DHT22;23776;51.592;7.180;2022-09-01T11:24:47;26.10;66.80
37956;DHT22;23776;51.592;7.180;2022-09-01T11:30:23;26.50;65.30
37956;DHT22;23776;51.592;7.180;2022-09-01T11:35:36;26.90;61.60
37956;DHT22;23776;51.592;7.180;2022-09-01T11:38:04;27.20;59.20
37956;DHT22;23776;51.592;7.180;2022-09-01T11:40:34;27.50;58.30
37956;DHT22;23776;51.592;7.180;2022-09-01T11:43:06;27.60;56.30
37956;DHT22;23776;51.592;7.180;2022-09-01T11:45:37;27.90;56.00
37956;DHT22;23776;51.592;7.180;2022-09-01T11:48:09;28.20;55.30
37956;DHT22;23776;51.592;7.180;2022-09-01T11:50:40;28.80;53.00
37956;DHT22;23776;51.592;7.180;2022-09-01T11:53:19;29.60;51.50
37956;DHT22;23776;51.592;7.180;2022-09-01T11:55:48;30.40;48.70
37956;DHT22;23776;51.592;7.180;2022-09-01T11:58:30;30.90;47.10
37956;DHT22;23776;51.592;7.180;2022-09-01T12:01:23;31.30;43.80
37956;DHT22;23776;51.592;7.180;2022-09-01T12:03:55;31.10;40.00
37956;DHT22;23776;51.592;7.180;2022-09-01T12:06:24;30.90;39.90
37956;DHT22;23776;51.592;7.180;2022-09-01T12:08:56;31.70;39.00
37956;DHT22;23776;51.592;7.180;2022-09-01T12:11:26;32.40;35.50
37956;DHT22;23776;51.592;7.180;2022-09-01T12:14:07;32.50;34.70
37956;DHT22;23776;51.592;7.180;2022-09-01T12:16:35;32.50;32.00
37956;DHT22;23776;51.592;7.180;2022-09-01T12:19:02;32.60;31.60
37956;DHT22;23776;51.592;7.180;2022-09-01T12:21:33;33.10;29.40
37956;DHT22;23776;51.592;7.180;2022-09-01T12:24:22;33.10;27.40
37956;DHT22;23776;51.592;7.180;2022-09-01T12:26:53;32.20;24.70
37956;DHT22;23776;51.592;7.180;2022-09-01T12:29:20;32.60;25.20
37956;DHT22;23776;51.592;7.180;2022-09-01T12:31:49;33.30;33.80
37956;DHT22;23776;51.592;7.180;2022-09-01T12:34:27;33.90;24.40
37956;DHT22;23776;51.592;7.180;2022-09-01T12:37:07;34.60;23.30
37956;DHT22;23776;51.592;7.180;2022-09-01T12:39:36;35.30;22.60
37956;DHT22;23776;51.592;7.180;2022-09-01T12:45:05;35.90;19.30
37956;DHT22;23776;51.592;7.180;2022-09-01T12:55:17;35.90;14.00
37956;DHT22;23776;51.592;7.180;2022-09-01T12:57:55;36.20;13.90
37956;DHT22;23776;51.592;7.180;2022-09-01T13:00:34;36.50;13.30
37956;DHT22;23776;51.592;7.180;2022-09-01T13:03:13;36.70;13.40
37956;DHT22;23776;51.592;7.180;2022-09-01T13:05:41;36.90;12.70
37956;DHT22;23776;51.592;7.180;2022-09-01T13:08:11;36.90;11.90
37956;DHT22;23776;51.592;7.180;2022-09-01T13:10:46;35.80;10.00
37956;DHT22;23776;51.592;7.180;2022-09-01T13:13:13;34.30;7.30
37956;DHT22;23776;51.592;7.180;2022-09-01T13:15:47;32.70;6.00
37956;DHT22;23776;51.592;7.180;2022-09-01T13:18:18;31.70;5.00
37956;DHT22;23776;51.592;7.180;2022-09-01T13:20:44;32.50;5.80
37956;DHT22;23776;51.592;7.180;2022-09-01T13:23:09;33.30;6.90
37956;DHT22;23776;51.592;7.180;2022-09-01T13:25:37;34.20;7.00
37956;DHT22;23776;51.592;7.180;2022-09-01T13:28:02;35.00;8.00
37956;DHT22;23776;51.592;7.180;2022-09-01T13:30:28;35.60;8.10
37956;DHT22;23776;51.592;7.180;2022-09-01T13:32:55;36.20;8.40
37956;DHT22;23776;51.592;7.180;2022-09-01T13:35:23;36.60;7.80
37956;DHT22;23776;51.592;7.180;2022-09-01T13:37:48;37.00;7.70
37956;DHT22;23776;51.592;7.180;2022-09-01T13:40:17;36.50;6.30
37956;DHT22;23776;51.592;7.180;2022-09-01T13:42:45;36.50;6.60
37956;DHT22;23776;51.592;7.180;2022-09-01T13:45:12;37.00;6.30
37956;DHT22;23776;51.592;7.180;2022-09-01T13:47:41;37.60;6.10
37956;DHT22;23776;51.592;7.180;2022-09-01T13:50:08;37.30;5.10
37956;DHT22;23776;51.592;7.180;2022-09-01T13:52:39;37.40;4.70
37956;DHT22;23776;51.592;7.180;2022-09-01T13:55:06;37.30;4.80
37956;DHT22;23776;51.592;7.180;2022-09-01T13:57:32;37.70;4.20
37956;DHT22;23776;51.592;7.180;2022-09-01T13:59:58;37.80;3.80
37956;DHT22;23776;51.592;7.180;2022-09-01T14:02:23;38.10;3.90
37956;DHT22;23776;51.592;7.180;2022-09-01T14:04:51;38.70;4.00
37956;DHT22;23776;51.592;7.180;2022-09-01T14:07:16;38.80;3.80
37956;DHT22;23776;51.592;7.180;2022-09-01T14:09:44;38.80;2.80
37956;DHT22;23776;51.592;7.180;2022-09-01T14:12:09;38.90;2.50
37956;DHT22;23776;51.592;7.180;2022-09-01T14:14:35;39.50;3.00
37956;DHT22;23776;51.592;7.180;2022-09-01T14:17:01;40.00;4.80
37956;DHT22;23776;51.592;7.180;2022-09-01T14:19:28;40.30;3.10
37956;DHT22;23776;51.592;7.180;2022-09-01T14:21:54;40.60;2.20
37956;DHT22;23776;51.592;7.180;2022-09-01T14:24:19;40.70;1.50
37956;DHT22;23776;51.592;7.180;2022-09-01T14:26:48;40.00;1.00
37956;DHT22;23776;51.592;7.180;2022-09-01T14:29:15;39.90;1.00
37956;DHT22;23776;51.592;7.180;2022-09-01T14:31:41;40.10;1.00
37956;DHT22;23776;51.592;7.180;2022-09-01T14:34:09;40.40;1.00
37956;DHT22;23776;51.592;7.180;2022-09-01T14:36:36;40.70;1.00
37956;DHT22;23776;51.592;7.180;2022-09-01T14:39:03;40.90;1.00
37956;DHT22;23776;51.592;7.180;2022-09-01T14:41:29;40.90;1.00
37956;DHT22;23776;51.592;7.180;2022-09-01T14:43:56;41.20;1.00
37956;DHT22;23776;51.592;7.180;2022-09-01T14:46:23;41.00;1.00
37956;DHT22;23776;51.592;7.180;2022-09-01T14:48:49;40.70;1.00
37956;DHT22;23776;51.592;7.180;2022-09-01T14:51:27;40.80;5.70
37956;DHT22;23776;51.592;7.180;2022-09-01T14:53:54;41.00;1.00
37956;DHT22;23776;51.592;7.180;2022-09-01T14:56:21;41.10;1.00
37956;DHT22;23776;51.592;7.180;2022-09-01T14:58:48;41.20;1.00
37956;DHT22;23776;51.592;7.180;2022-09-01T15:01:18;41.50;1.00
37956;DHT22;23776;51.592;7.180;2022-09-01T15:03:46;41.20;1.00
37956;DHT22;23776;51.592;7.180;2022-09-01T15:06:13;41.40;1.00
37956;DHT22;23776;51.592;7.180;2022-09-01T15:08:40;41.30;1.00
37956;DHT22;23776;51.592;7.180;2022-09-01T15:11:10;41.40;1.00
37956;DHT22;23776;51.592;7.180;2022-09-01T15:13:37;41.50;1.00
37956;DHT22;23776;51.592;7.180;2022-09-01T15:16:04;42.00;1.00
37956;DHT22;23776;51.592;7.180;2022-09-01T15:18:30;42.20;1.00
37956;DHT22;23776;51.592;7.180;2022-09-01T15:20:55;42.00;1.00
37956;DHT22;23776;51.592;7.180;2022-09-01T15:23:23;42.00;1.00
37956;DHT22;23776;51.592;7.180;2022-09-01T15:25:52;42.40;1.00
37956;DHT22;23776;51.592;7.180;2022-09-01T15:28:18;42.50;1.00
37956;DHT22;23776;51.592;7.180;2022-09-01T15:30:45;42.20;1.00
37956;DHT22;23776;51.592;7.180;2022-09-01T15:33:12;42.40;1.00
37956;DHT22;23776;51.592;7.180;2022-09-01T15:35:38;42.50;1.00
37956;DHT22;23776;51.592;7.180;2022-09-01T15:38:04;42.30;1.00
37956;DHT22;23776;51.592;7.180;2022-09-01T15:40:32;42.30;1.00
37956;DHT22;23776;51.592;7.180;2022-09-01T15:42:58;41.80;1.00
37956;DHT22;23776;51.592;7.180;2022-09-01T15:45:25;41.40;1.00
37956;DHT22;23776;51.592;7.180;2022-09-01T15:47:52;41.70;1.00
37956;DHT22;23776;51.592;7.180;2022-09-01T15:50:20;41.50;1.00
37956;DHT22;23776;51.592;7.180;2022-09-01T15:52:56;41.60;1.00
37956;DHT22;23776;51.592;7.180;2022-09-01T15:55:26;41.80;1.00
37956;DHT22;23776;51.592;7.180;2022-09-01T15:57:52;42.10;1.00
37956;DHT22;23776;51.592;7.180;2022-09-01T16:00:20;42.20;1.00
37956;DHT22;23776;51.592;7.180;2022-09-01T16:02:46;42.00;1.00
37956;DHT22;23776;51.592;7.180;2022-09-01T16:05:12;41.90;1.00
37956;DHT22;23776;51.592;7.180;2022-09-01T16:07:38;41.90;1.00
37956;DHT22;23776;51.592;7.180;2022-09-01T16:10:05;42.10;1.00
37956;DHT22;23776;51.592;7.180;2022-09-01T16:12:35;41.80;1.00
37956;DHT22;23776;51.592;7.180;2022-09-01T16:15:01;41.40;1.00
37956;DHT22;23776;51.592;7.180;2022-09-01T16:18:02;40.90;1.00
37956;DHT22;23776;51.592;7.180;2022-09-01T16:20:49;40.30;1.00
37956;DHT22;23776;51.592;7.180;2022-09-01T16:23:18;40.30;1.00
37956;DHT22;23776;51.592;7.180;2022-09-01T16:25:46;40.20;1.00
37956;DHT22;23776;51.592;7.180;2022-09-01T16:28:28;39.80;1.00
37956;DHT22;23776;51.592;7.180;2022-09-01T16:31:16;39.90;1.00
37956;DHT22;23776;51.592;7.180;2022-09-01T16:33:48;40.10;1.00
37956;DHT22;23776;51.592;7.180;2022-09-01T16:39:14;39.60;1.00
37956;DHT22;23776;51.592;7.180;2022-09-01T16:42:02;39.50;1.00
37956;DHT22;23776;51.592;7.180;2022-09-01T16:52:40;39.10;1.00
37956;DHT22;23776;51.592;7.180;2022-09-01T16:55:28;37.70;1.00
37956;DHT22;23776;51.592;7.180;2022-09-01T16:58:38;35.40;1.00
37956;DHT22;23776;51.592;7.180;2022-09-01T17:09:37;31.70;1.00
37956;DHT22;23776;51.592;7.180;2022-09-01T17:15:06;29.80;1.00
37956;DHT22;23776;51.592;7.180;2022-09-01T17:18:08;29.00;1.00
37956;DHT22;23776;51.592;7.180;2022-09-01T17:20:35;28.40;1.00
37956;DHT22;23776;51.592;7.180;2022-09-01T17:23:06;27.90;1.00